sensor_id;sensor_type;location;lat;lon;timestamp;P1;durP1;ratioP1;P2;durP2;ratioP2
33802;SDS011;20110;53.120;5.786;2023-06-10T00:02:08;18.00;;;10.05;;
33802;SDS011;20110;53.120;5.786;2023-06-10T00:04:34;20.95;;;10.13;;
33802;SDS011;20110;53.120;5.786;2023-06-10T00:07:04;20.67;;;10.23;;
33802;SDS011;20110;53.120;5.786;2023-06-10T00:09:34;20.75;;;9.90;;
33802;SDS011;20110;53.120;5.786;2023-06-10T00:12:02;20.58;;;9.25;;
33802;SDS011;20110;53.120;5.786;2023-06-10T00:14:38;24.45;;;10.38;;
33802;SDS011;20110;53.120;5.786;2023-06-10T00:17:08;20.20;;;9.80;;
33802;SDS011;20110;53.120;5.786;2023-06-10T00:19:34;24.58;;;10.38;;
33802;SDS011;20110;53.120;5.786;2023-06-10T00:22:00;16.88;;;10.48;;
33802;SDS011;20110;53.120;5.786;2023-06-10T00:24:26;19.27;;;10.35;;
33802;SDS011;20110;53.120;5.786;2023-06-10T00:26:51;22.65;;;10.52;;
33802;SDS011;20110;53.120;5.786;2023-06-10T00:29:17;19.25;;;10.05;;
33802;SDS011;20110;53.120;5.786;2023-06-10T00:31:44;18.67;;;9.98;;
33802;SDS011;20110;53.120;5.786;2023-06-10T00:34:11;24.13;;;10.98;;
33802;SDS011;20110;53.120;5.786;2023-06-10T00:36:37;16.58;;;8.98;;
33802;SDS011;20110;53.120;5.786;2023-06-10T00:39:03;17.08;;;9.52;;
33802;SDS011;20110;53.120;5.786;2023-06-10T00:41:29;21.55;;;9.80;;
33802;SDS011;20110;53.120;5.786;2023-06-10T00:43:56;18.60;;;9.68;;
33802;SDS011;20110;53.120;5.786;2023-06-10T00:46:22;20.35;;;9.38;;
33802;SDS011;20110;53.120;5.786;2023-06-10T00:48:50;19.33;;;10.07;;
33802;SDS011;20110;53.120;5.786;2023-06-10T00:51:17;18.17;;;9.38;;
33802;SDS011;20110;53.120;5.786;2023-06-10T00:53:44;13.77;;;9.13;;
33802;SDS011;20110;53.120;5.786;2023-06-10T00:56:11;22.15;;;10.13;;
33802;SDS011;20110;53.120;5.786;2023-06-10T00:58:38;22.85;;;10.45;;
33802;SDS011;20110;53.120;5.786;2023-06-10T01:01:05;18.45;;;10.25;;
33802;SDS011;20110;53.120;5.786;2023-06-10T01:03:30;20.85;;;9.90;;
33802;SDS011;20110;53.120;5.786;2023-06-10T01:06:36;31.48;;;9.93;;
33802;SDS011;20110;53.120;5.786;2023-06-10T01:12:02;20.10;;;9.73;;
33802;SDS011;20110;53.120;5.786;2023-06-10T01:14:52;16.80;;;9.32;;
33802;SDS011;20110;53.120;5.786;2023-06-10T01:17:20;22.17;;;9.75;;
33802;SDS011;20110;53.120;5.786;2023-06-10T01:19:56;17.20;;;9.40;;
33802;SDS011;20110;53.120;5.786;2023-06-10T01:22:26;19.15;;;10.00;;
33802;SDS011;20110;53.120;5.786;2023-06-10T01:25:01;26.83;;;10.45;;
33802;SDS011;20110;53.120;5.786;2023-06-10T01:27:29;21.25;;;11.02;;
33802;SDS011;20110;53.120;5.786;2023-06-10T01:30:07;26.90;;;10.38;;
33802;SDS011;20110;53.120;5.786;2023-06-10T01:32:45;15.02;;;9.45;;
33802;SDS011;20110;53.120;5.786;2023-06-10T01:35:15;29.20;;;10.10;;
33802;SDS011;20110;53.120;5.786;2023-06-10T01:37:46;18.58;;;10.20;;
33802;SDS011;20110;53.120;5.786;2023-06-10T01:40:14;14.90;;;9.68;;
33802;SDS011;20110;53.120;5.786;2023-06-10T01:42:41;19.55;;;10.23;;
33802;SDS011;20110;53.120;5.786;2023-06-10T01:45:07;17.92;;;9.75;;
33802;SDS011;20110;53.120;5.786;2023-06-10T01:47:34;17.55;;;9.93;;
33802;SDS011;20110;53.120;5.786;2023-06-10T01:49:59;16.80;;;9.32;;
33802;SDS011;20110;53.120;5.786;2023-06-10T01:52:26;22.75;;;10.43;;
33802;SDS011;20110;53.120;5.786;2023-06-10T01:54:53;26.88;;;10.15;;
33802;SDS011;20110;53.120;5.786;2023-06-10T01:57:18;17.15;;;9.77;;
33802;SDS011;20110;53.120;5.786;2023-06-10T01:59:44;17.90;;;8.30;;
33802;SDS011;20110;53.120;5.786;2023-06-10T02:02:11;15.10;;;9.60;;
33802;SDS011;20110;53.120;5.786;2023-06-10T02:04:37;20.13;;;9.68;;
33802;SDS011;20110;53.120;5.786;2023-06-10T02:07:03;18.38;;;9.57;;
33802;SDS011;20110;53.120;5.786;2023-06-10T02:09:31;19.52;;;10.32;;
33802;SDS011;20110;53.120;5.786;2023-06-10T02:11:59;15.85;;;9.30;;
33802;SDS011;20110;53.120;5.786;2023-06-10T02:14:32;16.00;;;9.95;;
33802;SDS011;20110;53.120;5.786;2023-06-10T02:16:58;16.52;;;9.65;;
33802;SDS011;20110;53.120;5.786;2023-06-10T02:19:24;18.00;;;9.70;;
33802;SDS011;20110;53.120;5.786;2023-06-10T02:21:51;29.08;;;11.45;;
33802;SDS011;20110;53.120;5.786;2023-06-10T02:24:17;24.13;;;10.50;;
33802;SDS011;20110;53.120;5.786;2023-06-10T02:26:43;16.52;;;10.50;;
33802;SDS011;20110;53.120;5.786;2023-06-10T02:29:10;18.95;;;10.43;;
33802;SDS011;20110;53.120;5.786;2023-06-10T02:31:36;21.35;;;11.40;;
33802;SDS011;20110;53.120;5.786;2023-06-10T02:34:02;15.25;;;9.60;;
33802;SDS011;20110;53.120;5.786;2023-06-10T02:36:29;19.95;;;11.20;;
33802;SDS011;20110;53.120;5.786;2023-06-10T02:38:55;19.15;;;9.82;;
33802;SDS011;20110;53.120;5.786;2023-06-10T02:41:21;19.48;;;9.95;;
33802;SDS011;20110;53.120;5.786;2023-06-10T02:43:47;17.73;;;10.25;;
33802;SDS011;20110;53.120;5.786;2023-06-10T02:46:13;25.25;;;10.85;;
33802;SDS011;20110;53.120;5.786;2023-06-10T02:48:42;20.60;;;10.02;;
33802;SDS011;20110;53.120;5.786;2023-06-10T02:51:11;25.58;;;10.73;;
33802;SDS011;20110;53.120;5.786;2023-06-10T02:53:37;15.88;;;10.30;;
33802;SDS011;20110;53.120;5.786;2023-06-10T02:56:03;16.45;;;9.77;;
33802;SDS011;20110;53.120;5.786;2023-06-10T02:58:29;19.63;;;10.10;;
33802;SDS011;20110;53.120;5.786;2023-06-10T03:00:55;20.83;;;10.57;;
33802;SDS011;20110;53.120;5.786;2023-06-10T03:03:21;19.20;;;10.80;;
33802;SDS011;20110;53.120;5.786;2023-06-10T03:05:48;16.25;;;9.45;;
33802;SDS011;20110;53.120;5.786;2023-06-10T03:08:14;28.23;;;10.45;;
33802;SDS011;20110;53.120;5.786;2023-06-10T03:10:40;13.98;;;9.57;;
33802;SDS011;20110;53.120;5.786;2023-06-10T03:13:06;18.77;;;9.98;;
33802;SDS011;20110;53.120;5.786;2023-06-10T03:15:31;23.00;;;9.85;;
33802;SDS011;20110;53.120;5.786;2023-06-10T03:17:59;16.45;;;9.60;;
33802;SDS011;20110;53.120;5.786;2023-06-10T03:20:25;20.10;;;10.48;;
33802;SDS011;20110;53.120;5.786;2023-06-10T03:22:52;22.48;;;10.43;;
33802;SDS011;20110;53.120;5.786;2023-06-10T03:25:18;17.55;;;8.43;;
33802;SDS011;20110;53.120;5.786;2023-06-10T03:27:45;19.63;;;10.18;;
33802;SDS011;20110;53.120;5.786;2023-06-10T03:30:12;18.70;;;10.23;;
33802;SDS011;20110;53.120;5.786;2023-06-10T03:32:39;20.80;;;9.93;;
33802;SDS011;20110;53.120;5.786;2023-06-10T03:35:06;12.73;;;9.25;;
33802;SDS011;20110;53.120;5.786;2023-06-10T03:37:32;11.85;;;9.25;;
33802;SDS011;20110;53.120;5.786;2023-06-10T03:39:58;18.73;;;10.07;;
33802;SDS011;20110;53.120;5.786;2023-06-10T03:42:24;16.33;;;9.07;;
33802;SDS011;20110;53.120;5.786;2023-06-10T03:44:50;25.23;;;9.38;;
33802;SDS011;20110;53.120;5.786;2023-06-10T03:47:16;15.35;;;9.40;;
33802;SDS011;20110;53.120;5.786;2023-06-10T03:49:42;15.35;;;9.10;;
33802;SDS011;20110;53.120;5.786;2023-06-10T03:52:07;17.25;;;10.10;;
33802;SDS011;20110;53.120;5.786;2023-06-10T03:54:33;17.27;;;8.43;;
33802;SDS011;20110;53.120;5.786;2023-06-10T03:57:00;15.75;;;9.93;;
33802;SDS011;20110;53.120;5.786;2023-06-10T03:59:26;11.32;;;8.10;;
33802;SDS011;20110;53.120;5.786;2023-06-10T04:01:52;22.98;;;9.43;;
33802;SDS011;20110;53.120;5.786;2023-06-10T04:04:17;14.07;;;9.55;;
33802;SDS011;20110;53.120;5.786;2023-06-10T04:06:43;19.75;;;8.68;;
33802;SDS011;20110;53.120;5.786;2023-06-10T04:09:10;17.65;;;8.82;;
33802;SDS011;20110;53.120;5.786;2023-06-10T04:11:36;17.10;;;8.80;;
33802;SDS011;20110;53.120;5.786;2023-06-10T04:14:02;15.63;;;8.43;;
33802;SDS011;20110;53.120;5.786;2023-06-10T04:16:28;17.75;;;8.45;;
33802;SDS011;20110;53.120;5.786;2023-06-10T04:18:54;18.15;;;8.55;;
33802;SDS011;20110;53.120;5.786;2023-06-10T04:21:20;14.98;;;8.93;;
33802;SDS011;20110;53.120;5.786;2023-06-10T04:23:47;15.57;;;7.93;;
33802;SDS011;20110;53.120;5.786;2023-06-10T04:26:13;16.30;;;8.40;;
33802;SDS011;20110;53.120;5.786;2023-06-10T04:28:39;15.02;;;8.18;;
33802;SDS011;20110;53.120;5.786;2023-06-10T04:31:05;20.23;;;8.02;;
33802;SDS011;20110;53.120;5.786;2023-06-10T04:33:31;15.05;;;7.60;;
33802;SDS011;20110;53.120;5.786;2023-06-10T04:35:56;16.00;;;8.02;;
33802;SDS011;20110;53.120;5.786;2023-06-10T04:38:22;11.55;;;7.10;;
33802;SDS011;20110;53.120;5.786;2023-06-10T04:40:48;13.07;;;7.10;;
33802;SDS011;20110;53.120;5.786;2023-06-10T04:43:14;11.07;;;7.53;;
33802;SDS011;20110;53.120;5.786;2023-06-10T04:45:41;13.38;;;7.53;;
33802;SDS011;20110;53.120;5.786;2023-06-10T04:48:10;15.52;;;7.32;;
33802;SDS011;20110;53.120;5.786;2023-06-10T04:50:36;12.52;;;8.02;;
33802;SDS011;20110;53.120;5.786;2023-06-10T04:53:02;22.05;;;7.32;;
33802;SDS011;20110;53.120;5.786;2023-06-10T04:55:28;15.55;;;7.97;;
33802;SDS011;20110;53.120;5.786;2023-06-10T04:57:54;14.65;;;8.13;;
33802;SDS011;20110;53.120;5.786;2023-06-10T05:00:20;12.15;;;7.60;;
33802;SDS011;20110;53.120;5.786;2023-06-10T05:02:46;10.23;;;6.38;;
33802;SDS011;20110;53.120;5.786;2023-06-10T05:05:17;10.98;;;7.28;;
33802;SDS011;20110;53.120;5.786;2023-06-10T05:07:43;14.95;;;7.28;;
33802;SDS011;20110;53.120;5.786;2023-06-10T05:10:09;12.65;;;6.85;;
33802;SDS011;20110;53.120;5.786;2023-06-10T05:12:37;11.70;;;7.70;;
33802;SDS011;20110;53.120;5.786;2023-06-10T05:15:05;15.40;;;7.03;;
33802;SDS011;20110;53.120;5.786;2023-06-10T05:17:32;18.88;;;7.20;;
33802;SDS011;20110;53.120;5.786;2023-06-10T05:20:00;16.05;;;7.32;;
33802;SDS011;20110;53.120;5.786;2023-06-10T05:22:27;15.82;;;6.93;;
33802;SDS011;20110;53.120;5.786;2023-06-10T05:24:53;11.73;;;6.97;;
33802;SDS011;20110;53.120;5.786;2023-06-10T05:27:18;7.57;;;6.88;;
33802;SDS011;20110;53.120;5.786;2023-06-10T05:29:44;15.52;;;7.28;;
33802;SDS011;20110;53.120;5.786;2023-06-10T05:32:10;10.55;;;6.30;;
33802;SDS011;20110;53.120;5.786;2023-06-10T05:34:36;11.23;;;6.55;;
33802;SDS011;20110;53.120;5.786;2023-06-10T05:37:02;19.05;;;7.70;;
33802;SDS011;20110;53.120;5.786;2023-06-10T05:39:29;16.65;;;7.60;;
33802;SDS011;20110;53.120;5.786;2023-06-10T05:41:55;11.02;;;6.28;;
33802;SDS011;20110;53.120;5.786;2023-06-10T05:44:23;12.63;;;6.90;;
33802;SDS011;20110;53.120;5.786;2023-06-10T05:46:49;13.02;;;6.88;;
33802;SDS011;20110;53.120;5.786;2023-06-10T05:49:15;13.07;;;7.38;;
33802;SDS011;20110;53.120;5.786;2023-06-10T05:51:41;15.60;;;7.47;;
33802;SDS011;20110;53.120;5.786;2023-06-10T05:54:07;12.30;;;7.57;;
33802;SDS011;20110;53.120;5.786;2023-06-10T05:56:33;15.68;;;6.43;;
33802;SDS011;20110;53.120;5.786;2023-06-10T05:59:00;16.90;;;7.15;;
33802;SDS011;20110;53.120;5.786;2023-06-10T06:01:26;14.70;;;6.93;;
33802;SDS011;20110;53.120;5.786;2023-06-10T06:03:52;12.77;;;7.03;;
33802;SDS011;20110;53.120;5.786;2023-06-10T06:06:18;11.93;;;6.82;;
33802;SDS011;20110;53.120;5.786;2023-06-10T06:08:45;15.75;;;7.28;;
33802;SDS011;20110;53.120;5.786;2023-06-10T06:11:11;12.73;;;6.32;;
33802;SDS011;20110;53.120;5.786;2023-06-10T06:13:37;12.90;;;6.53;;
33802;SDS011;20110;53.120;5.786;2023-06-10T06:16:03;12.52;;;6.15;;
33802;SDS011;20110;53.120;5.786;2023-06-10T06:18:29;13.68;;;5.70;;
33802;SDS011;20110;53.120;5.786;2023-06-10T06:20:54;18.90;;;7.53;;
33802;SDS011;20110;53.120;5.786;2023-06-10T06:23:20;11.95;;;6.65;;
33802;SDS011;20110;53.120;5.786;2023-06-10T06:25:46;14.23;;;6.18;;
33802;SDS011;20110;53.120;5.786;2023-06-10T06:28:12;16.52;;;6.50;;
33802;SDS011;20110;53.120;5.786;2023-06-10T06:30:37;9.00;;;6.05;;
33802;SDS011;20110;53.120;5.786;2023-06-10T06:33:03;17.17;;;5.78;;
33802;SDS011;20110;53.120;5.786;2023-06-10T06:35:32;11.95;;;5.50;;
33802;SDS011;20110;53.120;5.786;2023-06-10T06:37:59;16.75;;;6.07;;
33802;SDS011;20110;53.120;5.786;2023-06-10T06:40:25;13.20;;;5.65;;
33802;SDS011;20110;53.120;5.786;2023-06-10T06:42:51;8.25;;;5.32;;
33802;SDS011;20110;53.120;5.786;2023-06-10T06:45:17;15.10;;;6.10;;
33802;SDS011;20110;53.120;5.786;2023-06-10T06:47:43;10.55;;;5.68;;
33802;SDS011;20110;53.120;5.786;2023-06-10T06:50:09;7.75;;;4.95;;
33802;SDS011;20110;53.120;5.786;2023-06-10T06:52:35;10.52;;;5.50;;
33802;SDS011;20110;53.120;5.786;2023-06-10T06:55:00;10.68;;;5.80;;
33802;SDS011;20110;53.120;5.786;2023-06-10T06:57:27;7.30;;;5.00;;
33802;SDS011;20110;53.120;5.786;2023-06-10T06:59:52;6.93;;;5.03;;
33802;SDS011;20110;53.120;5.786;2023-06-10T07:02:18;10.57;;;5.30;;
33802;SDS011;20110;53.120;5.786;2023-06-10T07:04:44;12.15;;;5.60;;
33802;SDS011;20110;53.120;5.786;2023-06-10T07:07:12;8.25;;;5.18;;
33802;SDS011;20110;53.120;5.786;2023-06-10T07:09:37;21.17;;;6.28;;
33802;SDS011;20110;53.120;5.786;2023-06-10T07:12:03;9.00;;;4.82;;
33802;SDS011;20110;53.120;5.786;2023-06-10T07:14:30;9.63;;;5.35;;
33802;SDS011;20110;53.120;5.786;2023-06-10T07:16:56;7.47;;;4.78;;
33802;SDS011;20110;53.120;5.786;2023-06-10T07:19:22;9.70;;;4.97;;
33802;SDS011;20110;53.120;5.786;2023-06-10T07:21:48;6.85;;;4.40;;
33802;SDS011;20110;53.120;5.786;2023-06-10T07:24:13;14.32;;;4.82;;
33802;SDS011;20110;53.120;5.786;2023-06-10T07:26:39;10.27;;;4.95;;
33802;SDS011;20110;53.120;5.786;2023-06-10T07:29:05;6.47;;;4.60;;
33802;SDS011;20110;53.120;5.786;2023-06-10T07:31:31;15.63;;;4.82;;
33802;SDS011;20110;53.120;5.786;2023-06-10T07:33:57;8.40;;;4.35;;
33802;SDS011;20110;53.120;5.786;2023-06-10T07:36:23;10.00;;;4.50;;
33802;SDS011;20110;53.120;5.786;2023-06-10T07:38:48;6.55;;;4.32;;
33802;SDS011;20110;53.120;5.786;2023-06-10T07:41:14;8.68;;;4.25;;
33802;SDS011;20110;53.120;5.786;2023-06-10T07:43:43;14.63;;;5.07;;
33802;SDS011;20110;53.120;5.786;2023-06-10T07:46:08;20.48;;;5.30;;
33802;SDS011;20110;53.120;5.786;2023-06-10T07:48:34;13.73;;;5.05;;
33802;SDS011;20110;53.120;5.786;2023-06-10T07:51:00;17.13;;;4.75;;
33802;SDS011;20110;53.120;5.786;2023-06-10T07:53:26;9.00;;;4.75;;
33802;SDS011;20110;53.120;5.786;2023-06-10T07:55:51;10.32;;;5.50;;
33802;SDS011;20110;53.120;5.786;2023-06-10T07:58:18;10.02;;;4.70;;
33802;SDS011;20110;53.120;5.786;2023-06-10T08:00:44;5.50;;;3.97;;
33802;SDS011;20110;53.120;5.786;2023-06-10T08:03:11;9.35;;;4.43;;
33802;SDS011;20110;53.120;5.786;2023-06-10T08:05:38;12.65;;;5.18;;
33802;SDS011;20110;53.120;5.786;2023-06-10T08:08:05;8.30;;;3.90;;
33802;SDS011;20110;53.120;5.786;2023-06-10T08:10:31;11.43;;;4.18;;
33802;SDS011;20110;53.120;5.786;2023-06-10T08:12:56;9.15;;;4.10;;
33802;SDS011;20110;53.120;5.786;2023-06-10T08:15:25;14.80;;;4.88;;
33802;SDS011;20110;53.120;5.786;2023-06-10T08:17:51;11.07;;;5.28;;
33802;SDS011;20110;53.120;5.786;2023-06-10T08:20:17;8.82;;;4.53;;
33802;SDS011;20110;53.120;5.786;2023-06-10T08:22:43;7.25;;;4.10;;
33802;SDS011;20110;53.120;5.786;2023-06-10T08:25:09;7.80;;;4.07;;
33802;SDS011;20110;53.120;5.786;2023-06-10T08:27:35;11.52;;;3.70;;
33802;SDS011;20110;53.120;5.786;2023-06-10T08:30:01;6.95;;;3.80;;
33802;SDS011;20110;53.120;5.786;2023-06-10T08:32:27;8.85;;;4.50;;
33802;SDS011;20110;53.120;5.786;2023-06-10T08:34:53;7.25;;;3.65;;
33802;SDS011;20110;53.120;5.786;2023-06-10T08:37:18;11.63;;;4.32;;
33802;SDS011;20110;53.120;5.786;2023-06-10T08:39:44;6.53;;;3.83;;
33802;SDS011;20110;53.120;5.786;2023-06-10T08:42:33;6.78;;;3.90;;
33802;SDS011;20110;53.120;5.786;2023-06-10T08:45:05;4.75;;;3.42;;
33802;SDS011;20110;53.120;5.786;2023-06-10T08:47:37;7.38;;;3.42;;
33802;SDS011;20110;53.120;5.786;2023-06-10T08:50:09;8.52;;;3.72;;
33802;SDS011;20110;53.120;5.786;2023-06-10T08:52:36;14.93;;;4.40;;
33802;SDS011;20110;53.120;5.786;2023-06-10T08:55:30;5.70;;;3.70;;
33802;SDS011;20110;53.120;5.786;2023-06-10T08:58:07;5.63;;;3.70;;
33802;SDS011;20110;53.120;5.786;2023-06-10T09:00:33;5.68;;;4.00;;
33802;SDS011;20110;53.120;5.786;2023-06-10T09:03:00;8.05;;;4.00;;
33802;SDS011;20110;53.120;5.786;2023-06-10T09:05:27;7.10;;;3.10;;
33802;SDS011;20110;53.120;5.786;2023-06-10T09:07:54;3.78;;;3.40;;
33802;SDS011;20110;53.120;5.786;2023-06-10T09:10:25;8.95;;;4.20;;
33802;SDS011;20110;53.120;5.786;2023-06-10T09:12:52;7.80;;;3.22;;
33802;SDS011;20110;53.120;5.786;2023-06-10T09:15:18;5.82;;;3.08;;
33802;SDS011;20110;53.120;5.786;2023-06-10T09:17:44;5.45;;;3.72;;
33802;SDS011;20110;53.120;5.786;2023-06-10T09:20:11;5.85;;;3.83;;
33802;SDS011;20110;53.120;5.786;2023-06-10T09:22:37;13.50;;;4.22;;
33802;SDS011;20110;53.120;5.786;2023-06-10T09:27:33;9.70;;;4.10;;
33802;SDS011;20110;53.120;5.786;2023-06-10T09:30:28;4.25;;;3.28;;
33802;SDS011;20110;53.120;5.786;2023-06-10T09:32:58;6.93;;;4.18;;
33802;SDS011;20110;53.120;5.786;2023-06-10T09:35:26;5.65;;;3.83;;
33802;SDS011;20110;53.120;5.786;2023-06-10T09:37:55;11.65;;;3.67;;
33802;SDS011;20110;53.120;5.786;2023-06-10T09:40:23;15.98;;;4.25;;
33802;SDS011;20110;53.120;5.786;2023-06-10T09:42:54;5.55;;;3.75;;
33802;SDS011;20110;53.120;5.786;2023-06-10T09:45:29;8.35;;;4.38;;
33802;SDS011;20110;53.120;5.786;2023-06-10T09:47:56;6.45;;;3.92;;
33802;SDS011;20110;53.120;5.786;2023-06-10T09:50:22;9.73;;;3.70;;
33802;SDS011;20110;53.120;5.786;2023-06-10T09:52:48;5.85;;;3.38;;
33802;SDS011;20110;53.120;5.786;2023-06-10T09:55:16;7.90;;;3.72;;
33802;SDS011;20110;53.120;5.786;2023-06-10T09:57:43;8.15;;;4.90;;
33802;SDS011;20110;53.120;5.786;2023-06-10T10:00:13;6.90;;;3.90;;
33802;SDS011;20110;53.120;5.786;2023-06-10T10:02:47;4.35;;;3.50;;
33802;SDS011;20110;53.120;5.786;2023-06-10T10:05:16;6.70;;;4.25;;
33802;SDS011;20110;53.120;5.786;2023-06-10T10:07:47;5.22;;;3.92;;
33802;SDS011;20110;53.120;5.786;2023-06-10T10:10:13;5.03;;;3.80;;
33802;SDS011;20110;53.120;5.786;2023-06-10T10:12:41;6.30;;;3.28;;
33802;SDS011;20110;53.120;5.786;2023-06-10T10:15:08;8.10;;;3.80;;
33802;SDS011;20110;53.120;5.786;2023-06-10T10:20:34;5.90;;;3.72;;
33802;SDS011;20110;53.120;5.786;2023-06-10T10:23:11;5.32;;;3.63;;
33802;SDS011;20110;53.120;5.786;2023-06-10T10:25:49;9.30;;;4.18;;
33802;SDS011;20110;53.120;5.786;2023-06-10T10:28:20;4.13;;;3.53;;
33802;SDS011;20110;53.120;5.786;2023-06-10T10:30:52;4.40;;;4.00;;
33802;SDS011;20110;53.120;5.786;2023-06-10T10:36:03;7.18;;;3.88;;
33802;SDS011;20110;53.120;5.786;2023-06-10T10:38:30;6.60;;;3.58;;
33802;SDS011;20110;53.120;5.786;2023-06-10T10:40:58;5.30;;;3.30;;
33802;SDS011;20110;53.120;5.786;2023-06-10T10:43:26;6.10;;;3.95;;
33802;SDS011;20110;53.120;5.786;2023-06-10T10:45:59;9.38;;;3.75;;
33802;SDS011;20110;53.120;5.786;2023-06-10T10:48:26;3.53;;;3.22;;
33802;SDS011;20110;53.120;5.786;2023-06-10T10:50:59;5.47;;;3.75;;
33802;SDS011;20110;53.120;5.786;2023-06-10T10:53:25;5.57;;;3.55;;
33802;SDS011;20110;53.120;5.786;2023-06-10T10:55:58;4.15;;;3.40;;
33802;SDS011;20110;53.120;5.786;2023-06-10T10:58:38;4.28;;;3.58;;
33802;SDS011;20110;53.120;5.786;2023-06-10T11:01:13;13.05;;;3.88;;
33802;SDS011;20110;53.120;5.786;2023-06-10T11:03:43;8.15;;;3.58;;
33802;SDS011;20110;53.120;5.786;2023-06-10T11:06:12;7.25;;;3.70;;
33802;SDS011;20110;53.120;5.786;2023-06-10T11:11:23;4.85;;;3.63;;
33802;SDS011;20110;53.120;5.786;2023-06-10T11:16:27;4.22;;;3.40;;
33802;SDS011;20110;53.120;5.786;2023-06-10T11:18:54;6.10;;;3.53;;
33802;SDS011;20110;53.120;5.786;2023-06-10T11:21:21;4.25;;;3.85;;
33802;SDS011;20110;53.120;5.786;2023-06-10T11:23:51;4.47;;;3.33;;
33802;SDS011;20110;53.120;5.786;2023-06-10T11:33:52;7.72;;;3.25;;
33802;SDS011;20110;53.120;5.786;2023-06-10T11:36:26;5.80;;;3.40;;
33802;SDS011;20110;53.120;5.786;2023-06-10T11:38:57;5.10;;;3.83;;
33802;SDS011;20110;53.120;5.786;2023-06-10T11:41:26;4.40;;;3.33;;
33802;SDS011;20110;53.120;5.786;2023-06-10T11:43:56;3.20;;;2.90;;
33802;SDS011;20110;53.120;5.786;2023-06-10T11:46:44;4.03;;;3.63;;
33802;SDS011;20110;53.120;5.786;2023-06-10T11:49:10;7.55;;;3.33;;
33802;SDS011;20110;53.120;5.786;2023-06-10T11:51:37;7.95;;;3.58;;
33802;SDS011;20110;53.120;5.786;2023-06-10T11:54:07;8.63;;;3.30;;
33802;SDS011;20110;53.120;5.786;2023-06-10T11:56:34;5.03;;;3.33;;
33802;SDS011;20110;53.120;5.786;2023-06-10T11:59:01;5.13;;;4.50;;
33802;SDS011;20110;53.120;5.786;2023-06-10T12:01:32;6.93;;;3.33;;
33802;SDS011;20110;53.120;5.786;2023-06-10T12:04:00;5.68;;;3.55;;
33802;SDS011;20110;53.120;5.786;2023-06-10T12:06:43;5.40;;;3.22;;
33802;SDS011;20110;53.120;5.786;2023-06-10T12:09:20;6.35;;;3.42;;
33802;SDS011;20110;53.120;5.786;2023-06-10T12:11:55;10.57;;;3.92;;
33802;SDS011;20110;53.120;5.786;2023-06-10T12:17:24;6.25;;;3.50;;
33802;SDS011;20110;53.120;5.786;2023-06-10T12:20:06;3.35;;;3.05;;
33802;SDS011;20110;53.120;5.786;2023-06-10T12:22:37;5.20;;;3.35;;
33802;SDS011;20110;53.120;5.786;2023-06-10T12:25:08;4.22;;;3.50;;
33802;SDS011;20110;53.120;5.786;2023-06-10T12:27:36;3.72;;;3.15;;
33802;SDS011;20110;53.120;5.786;2023-06-10T12:30:04;4.70;;;3.28;;
33802;SDS011;20110;53.120;5.786;2023-06-10T12:32:38;4.22;;;3.70;;
33802;SDS011;20110;53.120;5.786;2023-06-10T12:35:08;4.03;;;3.17;;
33802;SDS011;20110;53.120;5.786;2023-06-10T12:37:37;4.13;;;2.90;;
33802;SDS011;20110;53.120;5.786;2023-06-10T12:40:04;3.22;;;2.92;;
33802;SDS011;20110;53.120;5.786;2023-06-10T12:42:38;4.18;;;3.53;;
33802;SDS011;20110;53.120;5.786;2023-06-10T12:45:04;3.13;;;2.85;;
33802;SDS011;20110;53.120;5.786;2023-06-10T12:47:33;7.47;;;3.65;;
33802;SDS011;20110;53.120;5.786;2023-06-10T12:50:04;5.75;;;3.40;;
33802;SDS011;20110;53.120;5.786;2023-06-10T12:52:31;4.65;;;3.50;;
33802;SDS011;20110;53.120;5.786;2023-06-10T12:54:57;4.30;;;3.13;;
33802;SDS011;20110;53.120;5.786;2023-06-10T12:57:24;4.00;;;3.05;;
33802;SDS011;20110;53.120;5.786;2023-06-10T12:59:50;3.38;;;2.78;;
33802;SDS011;20110;53.120;5.786;2023-06-10T13:02:22;5.05;;;4.00;;
33802;SDS011;20110;53.120;5.786;2023-06-10T13:04:52;5.70;;;3.92;;
33802;SDS011;20110;53.120;5.786;2023-06-10T13:07:18;9.90;;;4.18;;
33802;SDS011;20110;53.120;5.786;2023-06-10T13:09:44;11.05;;;4.18;;
33802;SDS011;20110;53.120;5.786;2023-06-10T13:12:13;8.45;;;4.97;;
33802;SDS011;20110;53.120;5.786;2023-06-10T13:14:39;10.38;;;4.15;;
33802;SDS011;20110;53.120;5.786;2023-06-10T13:17:05;25.73;;;4.55;;
33802;SDS011;20110;53.120;5.786;2023-06-10T13:19:31;5.90;;;4.25;;
33802;SDS011;20110;53.120;5.786;2023-06-10T13:22:00;11.05;;;4.82;;
33802;SDS011;20110;53.120;5.786;2023-06-10T13:24:26;11.35;;;4.88;;
33802;SDS011;20110;53.120;5.786;2023-06-10T13:26:52;9.65;;;4.45;;
33802;SDS011;20110;53.120;5.786;2023-06-10T13:29:19;15.02;;;4.82;;
33802;SDS011;20110;53.120;5.786;2023-06-10T13:31:45;9.50;;;4.70;;
33802;SDS011;20110;53.120;5.786;2023-06-10T13:34:11;10.88;;;4.63;;
33802;SDS011;20110;53.120;5.786;2023-06-10T13:36:37;8.98;;;5.15;;
33802;SDS011;20110;53.120;5.786;2023-06-10T13:39:03;8.15;;;4.68;;
33802;SDS011;20110;53.120;5.786;2023-06-10T13:41:28;8.98;;;4.22;;
33802;SDS011;20110;53.120;5.786;2023-06-10T13:43:54;9.35;;;4.78;;
33802;SDS011;20110;53.120;5.786;2023-06-10T13:46:21;10.68;;;4.88;;
33802;SDS011;20110;53.120;5.786;2023-06-10T13:48:47;8.82;;;4.85;;
33802;SDS011;20110;53.120;5.786;2023-06-10T13:51:13;9.95;;;5.78;;
33802;SDS011;20110;53.120;5.786;2023-06-10T13:53:39;18.50;;;4.85;;
33802;SDS011;20110;53.120;5.786;2023-06-10T13:56:05;10.70;;;4.70;;
33802;SDS011;20110;53.120;5.786;2023-06-10T13:58:31;10.70;;;4.53;;
33802;SDS011;20110;53.120;5.786;2023-06-10T14:00:56;12.40;;;5.00;;
33802;SDS011;20110;53.120;5.786;2023-06-10T14:03:23;12.05;;;4.40;;
33802;SDS011;20110;53.120;5.786;2023-06-10T14:05:49;9.48;;;4.18;;
33802;SDS011;20110;53.120;5.786;2023-06-10T14:08:15;8.30;;;4.43;;
33802;SDS011;20110;53.120;5.786;2023-06-10T14:10:42;13.75;;;4.68;;
33802;SDS011;20110;53.120;5.786;2023-06-10T14:13:08;10.50;;;4.63;;
33802;SDS011;20110;53.120;5.786;2023-06-10T14:15:34;8.77;;;4.75;;
33802;SDS011;20110;53.120;5.786;2023-06-10T14:18:00;7.43;;;4.28;;
33802;SDS011;20110;53.120;5.786;2023-06-10T14:20:26;12.68;;;4.20;;
33802;SDS011;20110;53.120;5.786;2023-06-10T14:22:56;5.82;;;3.92;;
33802;SDS011;20110;53.120;5.786;2023-06-10T14:25:23;5.13;;;3.60;;
33802;SDS011;20110;53.120;5.786;2023-06-10T14:27:49;7.95;;;4.03;;
33802;SDS011;20110;53.120;5.786;2023-06-10T14:30:15;15.48;;;3.97;;
33802;SDS011;20110;53.120;5.786;2023-06-10T14:32:42;7.47;;;3.45;;
33802;SDS011;20110;53.120;5.786;2023-06-10T14:35:08;9.88;;;4.28;;
33802;SDS011;20110;53.120;5.786;2023-06-10T14:37:35;7.30;;;4.28;;
33802;SDS011;20110;53.120;5.786;2023-06-10T14:40:01;16.45;;;4.28;;
33802;SDS011;20110;53.120;5.786;2023-06-10T14:42:30;6.90;;;3.67;;
33802;SDS011;20110;53.120;5.786;2023-06-10T14:44:57;7.68;;;4.07;;
33802;SDS011;20110;53.120;5.786;2023-06-10T14:47:23;19.17;;;4.13;;
33802;SDS011;20110;53.120;5.786;2023-06-10T14:49:50;8.32;;;4.13;;
33802;SDS011;20110;53.120;5.786;2023-06-10T14:52:15;9.40;;;3.67;;
33802;SDS011;20110;53.120;5.786;2023-06-10T14:54:41;11.55;;;4.80;;
33802;SDS011;20110;53.120;5.786;2023-06-10T14:57:07;6.18;;;3.63;;
33802;SDS011;20110;53.120;5.786;2023-06-10T14:59:33;13.00;;;4.10;;
33802;SDS011;20110;53.120;5.786;2023-06-10T15:02:00;9.00;;;3.78;;
33802;SDS011;20110;53.120;5.786;2023-06-10T15:04:26;12.10;;;4.03;;
33802;SDS011;20110;53.120;5.786;2023-06-10T15:06:53;10.30;;;4.28;;
33802;SDS011;20110;53.120;5.786;2023-06-10T15:09:19;12.60;;;4.97;;